Time;durP1;ratioP1;P1;durP2;ratioP2;P2;SDS_P1;SDS_P2;PMS_P1;PMS_P2;Temp;Humidity;BMP_temperature;BMP_pressure;BME280_temperature;BME280_humidity;BME280_pressure;Samples;Min_cycle;Max_cycle;Signal;HPM_P1;HPM_P2
2022/02/26 00:00:25;;;;;;;6.13;2.17;;;;;;;21.63;35.70;103094.88;5036519;28;20110;-71
2022/02/26 00:02:51;;;;;;;5.60;2.58;;;;;;;21.60;35.82;103097.81;5034069;28;20045;-69
2022/02/26 00:05:17;;;;;;;6.80;2.10;;;;;;;21.54;35.64;103093.03;5034397;28;20053;-71
2022/02/26 00:07:43;;;;;;;7.45;2.80;;;;;;;21.54;35.65;103110.75;5031838;28;20033;-68
2022/02/26 00:10:09;;;;;;;9.13;2.35;;;;;;;21.51;35.79;103109.22;5033572;28;20146;-71
2022/02/26 00:12:34;;;;;;;6.78;2.40;;;;;;;21.49;36.03;103116.47;5032881;28;20033;-71
2022/02/26 00:15:01;;;;;;;7.15;2.15;;;;;;;21.47;35.68;103115.78;5030660;28;20480;-71
2022/02/26 00:17:26;;;;;;;4.93;2.35;;;;;;;21.45;35.88;103119.53;5037963;28;20052;-71
2022/02/26 00:19:52;;;;;;;8.30;2.83;;;;;;;21.42;35.82;103118.00;5033266;28;20029;-71
2022/02/26 00:22:18;;;;;;;6.13;2.30;;;;;;;21.41;35.94;103124.28;5067925;28;20048;-71
2022/02/26 00:24:43;;;;;;;5.65;2.35;;;;;;;21.37;35.95;103131.66;5032417;28;20033;-71
2022/02/26 00:27:10;;;;;;;5.28;2.35;;;;;;;21.37;35.92;103136.13;5037454;28;20048;-71
2022/02/26 00:29:35;;;;;;;5.38;2.03;;;;;;;21.32;35.81;103141.81;5038879;28;20045;-71
2022/02/26 00:32:04;;;;;;;5.90;2.22;;;;;;;21.32;35.89;103154.22;5035855;28;20079;-71
2022/02/26 00:34:30;;;;;;;6.45;2.45;;;;;;;21.28;35.88;103153.66;5035812;28;20037;-71
2022/02/26 00:36:56;;;;;;;7.57;3.03;;;;;;;21.27;35.97;103149.31;5033735;28;20032;-71
2022/02/26 00:39:22;;;;;;;6.95;2.65;;;;;;;21.22;35.93;103153.31;5037851;28;20049;-71
2022/02/26 00:41:48;;;;;;;5.55;2.17;;;;;;;21.24;35.93;103161.97;5037465;28;20032;-71
2022/02/26 00:44:14;;;;;;;6.32;2.22;;;;;;;21.21;35.89;103156.94;5039775;28;20430;-71
2022/02/26 00:46:44;;;;;;;5.45;2.15;;;;;;;21.19;36.06;103158.88;5036608;28;20036;-71
2022/02/26 00:51:54;;;;;;;7.43;2.20;;;;;;;21.16;35.88;103175.03;5042686;28;20044;-71
2022/02/26 00:54:19;;;;;;;5.28;2.05;;;;;;;21.11;36.04;103181.56;5035006;28;20041;-68
2022/02/26 00:56:45;;;;;;;4.65;2.15;;;;;;;21.10;36.07;103182.53;5040573;28;20053;-70
2022/02/26 00:59:10;;;;;;;6.60;2.30;;;;;;;21.07;35.89;103176.66;5034949;28;20042;-71
2022/02/26 01:01:36;;;;;;;7.50;2.35;;;;;;;21.08;36.02;103186.28;5044273;28;20051;-71
2022/02/26 01:04:04;;;;;;;7.30;2.30;;;;;;;21.00;35.97;103178.97;5038297;28;20073;-71
2022/02/26 01:06:29;;;;;;;7.35;2.75;;;;;;;21.05;36.06;103191.84;5038731;28;20045;-71
2022/02/26 01:08:55;;;;;;;6.70;2.42;;;;;;;21.03;35.89;103193.81;5036286;28;20365;-71
2022/02/26 01:11:21;;;;;;;6.43;2.28;;;;;;;21.00;35.99;103192.22;5035868;28;20156;-71
2022/02/26 01:13:47;;;;;;;6.97;2.40;;;;;;;20.98;36.08;103183.56;5039543;28;20163;-71
2022/02/26 01:16:12;;;;;;;9.07;3.35;;;;;;;20.94;36.01;103178.69;5036809;28;20514;-71
2022/02/26 01:18:38;;;;;;;5.68;2.10;;;;;;;20.95;35.92;103186.50;5043087;28;20040;-71
2022/02/26 01:21:04;;;;;;;6.18;2.50;;;;;;;20.80;36.17;103164.78;5041082;28;20500;-70
2022/02/26 01:23:29;;;;;;;9.65;3.05;;;;;;;20.79;36.09;103176.34;5040987;28;20041;-70
2022/02/26 01:25:55;;;;;;;5.60;2.03;;;;;;;20.88;36.11;103200.41;5041066;28;20040;-71
2022/02/26 01:28:20;;;;;;;5.35;2.53;;;;;;;20.89;36.13;103202.91;5038177;28;20052;-71
2022/02/26 01:30:46;;;;;;;7.43;2.70;;;;;;;20.88;36.12;103206.53;5040860;28;20060;-71
2022/02/26 01:33:12;;;;;;;6.47;2.50;;;;;;;20.85;36.12;103203.31;5034806;28;20033;-68
2022/02/26 01:35:37;;;;;;;6.82;2.70;;;;;;;20.84;36.10;103201.63;5039149;28;20040;-71
2022/02/26 01:38:03;;;;;;;5.65;2.10;;;;;;;20.81;36.04;103208.00;5032874;28;20082;-71
2022/02/26 01:40:28;;;;;;;7.28;2.55;;;;;;;20.80;36.22;103207.16;5035049;28;20036;-68
2022/02/26 01:42:54;;;;;;;6.78;2.40;;;;;;;20.77;36.13;103204.78;5033877;28;20049;-71
2022/02/26 01:45:20;;;;;;;5.90;2.45;;;;;;;20.77;36.09;103207.41;5038358;28;20041;-71
2022/02/26 01:47:46;;;;;;;6.43;2.58;;;;;;;20.74;36.21;103217.44;5033648;28;20656;-70
2022/02/26 01:50:15;;;;;;;8.48;2.30;;;;;;;20.74;36.21;103209.50;5032759;28;20119;-70
2022/02/26 01:52:41;;;;;;;5.53;2.83;;;;;;;20.72;36.44;103206.97;5039770;28;20428;-70
2022/02/26 01:55:07;;;;;;;6.00;2.78;;;;;;;20.72;36.18;103206.13;5034058;28;20242;-70
2022/02/26 01:57:33;;;;;;;7.70;2.53;;;;;;;20.69;36.17;103211.69;5041325;28;20032;-69
2022/02/26 01:59:58;;;;;;;7.68;2.60;;;;;;;20.66;36.26;103199.56;5032101;28;20033;-70
2022/02/26 02:02:24;;;;;;;6.65;2.63;;;;;;;20.66;36.28;103220.75;5070635;28;20037;-70
2022/02/26 02:04:50;;;;;;;6.07;2.30;;;;;;;20.65;36.19;103229.66;5038709;28;20565;-70
2022/02/26 02:07:16;;;;;;;5.70;2.13;;;;;;;20.51;36.44;103204.31;5034699;28;20044;-70
2022/02/26 02:09:43;;;;;;;5.88;2.22;;;;;;;20.61;36.19;103216.75;5036441;28;20033;-70
2022/02/26 02:12:09;;;;;;;5.15;2.50;;;;;;;20.59;36.17;103218.72;5032113;28;20043;-70
2022/02/26 02:14:35;;;;;;;4.63;2.20;;;;;;;20.59;36.18;103224.00;5042798;28;20033;-70
2022/02/26 02:17:02;;;;;;;6.88;2.58;;;;;;;20.57;36.25;103224.13;5033244;28;20055;-70
2022/02/26 02:19:27;;;;;;;6.55;2.58;;;;;;;20.52;36.48;103228.97;5041415;28;20041;-70
2022/02/26 02:21:53;;;;;;;7.30;2.80;;;;;;;20.43;36.23;103216.47;5041673;28;20411;-70
2022/02/26 02:24:19;;;;;;;6.20;2.80;;;;;;;20.52;36.29;103237.75;5033435;28;20025;-70
2022/02/26 02:26:46;;;;;;;8.80;3.58;;;;;;;20.47;36.31;103224.06;5054537;28;20483;-70
2022/02/26 02:29:12;;;;;;;9.25;2.63;;;;;;;20.50;36.38;103229.09;5038505;28;20376;-70
2022/02/26 02:31:38;;;;;;;8.07;2.67;;;;;;;20.49;36.23;103229.22;5038738;28;20067;-70
2022/02/26 02:34:04;;;;;;;6.70;2.38;;;;;;;20.48;36.33;103230.19;5032444;28;20033;-71
2022/02/26 02:36:30;;;;;;;8.85;2.70;;;;;;;20.45;36.38;103236.56;5036183;28;20059;-70
2022/02/26 02:38:55;;;;;;;7.20;2.83;;;;;;;20.46;36.42;103232.09;5038881;28;20064;-70
2022/02/26 02:41:21;;;;;;;6.10;2.70;;;;;;;20.44;36.53;103231.41;5031584;28;20037;-70
2022/02/26 02:43:47;;;;;;;6.18;2.70;;;;;;;20.43;36.30;103227.06;5038398;28;20091;-70
2022/02/26 02:46:12;;;;;;;6.93;2.53;;;;;;;20.42;36.35;103228.88;5033786;28;20033;-70
2022/02/26 02:48:38;;;;;;;6.60;2.30;;;;;;;20.41;36.36;103226.34;5036687;28;20045;-70
2022/02/26 02:51:05;;;;;;;6.80;2.90;;;;;;;20.38;36.40;103234.50;5033671;28;20033;-70
2022/02/26 02:53:32;;;;;;;6.30;2.83;;;;;;;20.37;36.37;103231.03;5038728;28;20143;-70
2022/02/26 02:55:58;;;;;;;6.90;2.75;;;;;;;20.22;36.47;103209.31;5034275;28;20368;-70
2022/02/26 02:58:29;;;;;;;6.93;2.67;;;;;;;20.36;36.35;103234.66;5035154;28;20044;-70
2022/02/26 03:00:56;;;;;;;7.97;2.88;;;;;;;20.31;36.48;103220.97;5040980;28;20071;-70
2022/02/26 03:03:22;;;;;;;8.85;3.13;;;;;;;20.31;36.44;103223.59;5034035;28;20072;-70
2022/02/26 03:05:48;;;;;;;9.82;3.20;;;;;;;20.30;36.48;103232.50;5038165;28;20519;-70
2022/02/26 03:08:14;;;;;;;8.02;2.70;;;;;;;20.28;36.46;103223.00;5034532;28;20037;-70
2022/02/26 03:10:40;;;;;;;6.43;2.70;;;;;;;20.23;36.48;103226.84;5031478;28;20103;-70
2022/02/26 03:13:06;;;;;;;5.68;2.67;;;;;;;20.25;36.43;103223.25;5032716;28;20029;-70
2022/02/26 03:15:32;;;;;;;7.90;2.80;;;;;;;20.27;36.42;103224.78;5035835;28;20099;-70
2022/02/26 03:17:58;;;;;;;10.60;2.95;;;;;;;20.25;36.38;103233.81;5035760;28;20570;-70
2022/02/26 03:20:24;;;;;;;7.70;2.50;;;;;;;20.23;36.42;103233.94;5033281;28;20132;-70
2022/02/26 03:22:50;;;;;;;5.78;2.75;;;;;;;20.18;36.54;103226.41;5036886;28;20037;-70
2022/02/26 03:25:16;;;;;;;7.03;2.70;;;;;;;20.17;36.44;103226.53;5033537;28;20455;-70
2022/02/26 03:27:42;;;;;;;8.65;2.67;;;;;;;20.17;36.56;103226.53;5037082;28;20044;-70
2022/02/26 03:30:09;;;;;;;6.15;3.00;;;;;;;20.16;36.57;103220.41;5035810;28;20042;-70
2022/02/26 03:32:37;;;;;;;5.70;2.50;;;;;;;20.13;36.63;103225.09;5032254;28;20041;-70
2022/02/26 03:35:04;;;;;;;5.45;2.45;;;;;;;20.14;36.57;103240.84;5040229;28;20090;-70
2022/02/26 03:37:31;;;;;;;6.63;2.78;;;;;;;20.15;36.52;103239.03;5031777;28;20649;-70
2022/02/26 03:39:57;;;;;;;6.95;2.65;;;;;;;20.12;36.50;103236.66;5034316;28;20048;-70
2022/02/26 03:42:22;;;;;;;4.68;2.10;;;;;;;20.12;36.58;103236.66;5029693;28;20033;-70
2022/02/26 03:44:48;;;;;;;7.40;3.33;;;;;;;20.09;36.47;103235.06;5039123;28;20407;-70
2022/02/26 03:47:18;;;;;;;5.10;2.30;;;;;;;20.08;36.61;103236.03;5033028;28;20044;-70
2022/02/26 03:49:44;;;;;;;7.95;2.95;;;;;;;20.07;36.47;103247.56;5036412;28;20055;-70
2022/02/26 03:52:10;;;;;;;7.13;2.70;;;;;;;20.05;36.78;103243.38;5035220;28;20395;-70
2022/02/26 03:54:35;;;;;;;6.88;2.47;;;;;;;20.02;36.65;103247.09;5032597;28;20040;-70
2022/02/26 03:57:02;;;;;;;6.05;2.40;;;;;;;20.05;36.54;103246.84;5036146;28;20040;-70
2022/02/26 03:59:27;;;;;;;5.45;2.42;;;;;;;20.04;36.49;103246.97;5033319;28;20119;-70
2022/02/26 04:01:53;;;;;;;8.32;2.20;;;;;;;20.01;36.60;103253.38;5038274;28;20067;-70
2022/02/26 04:04:21;;;;;;;7.07;2.75;;;;;;;20.02;36.65;103259.50;5039180;28;20053;-70
2022/02/26 04:06:47;;;;;;;6.00;2.97;;;;;;;19.99;36.63;103265.03;5040225;28;20636;-70
2022/02/26 04:09:13;;;;;;;7.85;2.72;;;;;;;19.98;36.63;103271.28;5038943;28;20049;-70
2022/02/26 04:11:39;;;;;;;6.25;2.15;;;;;;;19.98;36.58;103273.94;5038984;28;20045;-68
2022/02/26 04:14:04;;;;;;;9.65;2.83;;;;;;;19.96;36.62;103270.56;5037850;28;20128;-70
2022/02/26 04:16:30;;;;;;;4.97;2.22;;;;;;;19.95;36.48;103276.81;5034689;28;20039;-70
2022/02/26 04:18:55;;;;;;;5.53;2.20;;;;;;;19.93;36.61;103279.59;5041997;28;20052;-70
2022/02/26 04:21:22;;;;;;;6.90;2.58;;;;;;;19.90;36.70;103283.28;5040662;28;20041;-70
2022/02/26 04:23:47;;;;;;;6.72;2.28;;;;;;;19.90;36.65;103293.03;5040763;28;20037;-70
2022/02/26 04:26:14;;;;;;;4.93;2.20;;;;;;;19.91;36.75;103302.63;5041626;28;20044;-70
2022/02/26 04:28:40;;;;;;;8.20;2.90;;;;;;;19.87;36.56;103302.03;5037882;28;20029;-70
2022/02/26 04:31:06;;;;;;;5.90;2.33;;;;;;;19.88;36.65;103302.88;5040476;28;20566;-70
2022/02/26 04:33:31;;;;;;;6.20;2.15;;;;;;;19.87;36.52;103317.91;5038559;28;20053;-70
2022/02/26 04:35:58;;;;;;;5.22;1.98;;;;;;;19.85;36.57;103317.19;5045169;28;20090;-70
2022/02/26 04:38:25;;;;;;;5.65;2.22;;;;;;;19.81;36.79;103317.56;5034135;28;20043;-70
2022/02/26 04:40:50;;;;;;;5.35;2.20;;;;;;;19.84;36.61;103325.25;5037979;28;20082;-70
2022/02/26 04:43:16;;;;;;;5.07;2.22;;;;;;;19.82;36.59;103328.00;5037622;28;20036;-70
2022/02/26 04:45:42;;;;;;;6.95;2.53;;;;;;;19.83;36.70;103328.84;5039450;28;20557;-70
2022/02/26 04:48:08;;;;;;;5.60;2.30;;;;;;;19.81;36.60;103333.44;5042259;28;20037;-70
2022/02/26 04:50:34;;;;;;;4.18;2.10;;;;;;;19.80;36.56;103344.97;5036402;28;20029;-70
2022/02/26 04:52:59;;;;;;;6.05;2.47;;;;;;;19.77;36.63;103345.22;5038915;28;20522;-70
2022/02/26 04:55:25;;;;;;;4.88;2.00;;;;;;;19.65;36.85;103328.47;5029848;28;20097;-70
2022/02/26 04:57:51;;;;;;;5.28;2.40;;;;;;;19.76;36.63;103344.38;5038989;28;20052;-70
2022/02/26 05:00:16;;;;;;;4.38;2.20;;;;;;;19.73;36.71;103352.50;5038900;28;20240;-70
2022/02/26 05:02:42;;;;;;;5.70;2.17;;;;;;;19.75;36.73;103358.56;5036674;28;20107;-70
2022/02/26 05:05:08;;;;;;;7.38;2.08;;;;;;;19.69;36.77;103361.63;5035721;28;20037;-70
2022/02/26 05:07:34;;;;;;;6.50;2.15;;;;;;;19.68;36.75;103357.31;5036572;28;20064;-70
2022/02/26 05:09:59;;;;;;;6.07;2.03;;;;;;;19.60;36.77;103349.16;5037733;28;20033;-70
2022/02/26 05:12:25;;;;;;;7.00;2.00;;;;;;;19.74;36.65;103374.50;5032543;28;20048;-70
2022/02/26 05:14:50;;;;;;;7.90;2.20;;;;;;;19.69;36.76;103366.94;5038913;28;20033;-70
2022/02/26 05:17:17;;;;;;;7.47;2.40;;;;;;;19.73;36.72;103371.00;5037319;28;20073;-70
2022/02/26 05:19:42;;;;;;;6.68;2.35;;;;;;;19.75;36.70;103378.81;5039429;28;20039;-70
2022/02/26 05:22:08;;;;;;;4.38;2.28;;;;;;;19.74;36.80;103374.50;5040639;28;20040;-69
2022/02/26 05:24:34;;;;;;;7.30;2.22;;;;;;;19.76;36.74;103375.25;5037056;28;20443;-70
2022/02/26 05:26:59;;;;;;;4.82;2.10;;;;;;;19.76;36.75;103377.91;5039551;28;20039;-70
2022/02/26 05:29:25;;;;;;;7.10;2.85;;;;;;;19.75;36.52;103362.97;5037024;28;20570;-70
2022/02/26 05:31:50;;;;;;;6.65;2.33;;;;;;;19.70;36.78;103363.31;5035483;28;20111;-70
2022/02/26 05:34:17;;;;;;;5.63;1.90;;;;;;;19.69;36.77;103372.22;5035966;28;20503;-70
2022/02/26 05:36:43;;;;;;;8.85;2.38;;;;;;;19.71;36.74;103377.38;5038827;28;20689;-70
2022/02/26 05:39:09;;;;;;;4.00;2.05;;;;;;;19.79;36.72;103386.44;5032596;28;20044;-70
2022/02/26 05:41:35;;;;;;;6.38;2.03;;;;;;;20.00;36.43;103391.03;5033344;28;20040;-70
2022/02/26 05:44:01;;;;;;;5.95;1.98;;;;;;;20.35;35.95;103383.81;5037697;28;20064;-70
2022/02/26 05:46:27;;;;;;;5.32;2.22;;;;;;;20.69;35.60;103383.78;5033105;28;20116;-70
2022/02/26 05:48:52;;;;;;;3.65;1.95;;;;;;;20.94;35.20;103385.28;5043072;28;22353;-70
2022/02/26 05:51:18;;;;;;;3.60;1.88;;;;;;;21.17;34.83;103400.13;5034344;28;20051;-70
2022/02/26 05:53:43;;;;;;;9.48;2.67;;;;;;;21.38;34.40;103398.38;5037265;28;20033;-70
2022/02/26 05:56:09;;;;;;;3.40;1.80;;;;;;;21.48;34.33;103408.22;5067073;28;21362;-69
2022/02/26 05:58:35;;;;;;;5.25;2.00;;;;;;;21.58;34.21;103404.66;5035630;28;20809;-70
2022/02/26 06:01:00;;;;;;;5.88;2.10;;;;;;;21.62;34.37;103403.44;5037813;28;20544;-70
2022/02/26 06:03:26;;;;;;;4.85;1.73;;;;;;;21.73;34.14;103417.59;5033843;28;20045;-70
2022/02/26 06:05:51;;;;;;;4.20;1.73;;;;;;;21.76;34.32;103420.84;5037979;28;20045;-70
2022/02/26 06:08:17;;;;;;;3.22;1.50;;;;;;;21.74;34.51;103432.56;5034592;28;20087;-70
2022/02/26 06:10:43;;;;;;;4.15;1.77;;;;;;;21.64;34.38;103408.59;5035447;28;20055;-70
2022/02/26 06:13:08;;;;;;;7.32;2.17;;;;;;;21.81;34.18;103421.28;5033632;28;20607;-70
2022/02/26 06:15:34;;;;;;;4.45;1.80;;;;;;;22.11;33.79;103417.00;5038027;28;20028;-70
2022/02/26 06:17:59;;;;;;;4.90;2.03;;;;;;;22.43;33.28;103428.31;5038826;28;20052;-70
2022/02/26 06:20:25;;;;;;;5.40;1.73;;;;;;;22.86;32.69;103429.84;5032921;28;20389;-70
2022/02/26 06:22:50;;;;;;;3.60;1.73;;;;;;;23.04;32.41;103430.88;5067887;28;20044;-70
2022/02/26 06:25:16;;;;;;;4.95;2.10;;;;;;;23.08;32.50;103439.41;5030192;28;20099;-70
2022/02/26 06:27:43;;;;;;;5.57;1.80;;;;;;;22.88;32.54;103447.34;5039779;28;20163;-70
2022/02/26 06:30:11;;;;;;;4.97;2.13;;;;;;;22.65;32.98;103448.53;5036893;28;20412;-70
2022/02/26 06:32:37;;;;;;;3.80;1.95;;;;;;;22.37;33.55;103455.41;5033522;28;20653;-70
2022/02/26 06:35:04;;;;;;;6.05;1.83;;;;;;;22.16;33.78;103450.13;5042751;28;20036;-70
2022/02/26 06:37:30;;;;;;;5.28;1.55;;;;;;;22.01;34.33;103454.06;5036136;28;20107;-70
2022/02/26 06:39:56;;;;;;;5.65;2.45;;;;;;;21.89;34.43;103460.41;5038016;28;20605;-70
2022/02/26 06:42:22;;;;;;;3.85;2.00;;;;;;;21.81;34.59;103469.03;5018692;28;20138;-70
2022/02/26 06:44:48;;;;;;;6.57;1.80;;;;;;;21.74;34.77;103459.91;5035470;28;20076;-70
2022/02/26 06:47:14;;;;;;;5.03;1.67;;;;;;;21.64;34.84;103465.13;5032918;28;20051;-70
2022/02/26 06:49:39;;;;;;;5.60;2.05;;;;;;;21.60;34.86;103461.06;5032919;28;20033;-70
2022/02/26 06:52:06;;;;;;;3.72;1.70;;;;;;;21.55;34.89;103473.03;5034731;28;20777;-70
2022/02/26 06:54:32;;;;;;;4.05;1.55;;;;;;;21.63;34.80;103467.91;5033809;28;20036;-70
2022/02/26 06:56:59;;;;;;;5.70;2.40;;;;;;;21.84;34.47;103468.75;5036025;28;20045;-70
2022/02/26 06:59:25;;;;;;;3.58;1.75;;;;;;;22.12;34.02;103471.78;5033146;28;20044;-70
2022/02/26 07:01:50;;;;;;;4.13;1.70;;;;;;;22.25;33.92;103486.47;5039691;28;20041;-70
2022/02/26 07:04:16;;;;;;;4.68;1.90;;;;;;;22.22;34.08;103488.56;5035479;28;20056;-70
2022/02/26 07:06:45;;;;;;;3.05;1.63;;;;;;;22.09;34.12;103496.75;5033096;28;20029;-70
2022/02/26 07:09:14;;;;;;;4.72;1.90;;;;;;;21.98;34.09;103494.13;5030656;28;20033;-70
2022/02/26 07:11:44;;;;;;;5.25;1.77;;;;;;;21.89;34.57;103498.38;5034313;28;20036;-70
2022/02/26 07:14:11;;;;;;;7.05;1.63;;;;;;;21.81;34.75;103494.72;5033514;28;20049;-70
2022/02/26 07:16:37;;;;;;;4.95;1.70;;;;;;;21.72;34.65;103501.59;5030642;28;20384;-70
2022/02/26 07:19:04;;;;;;;2.78;1.55;;;;;;;21.65;34.74;103506.59;5042964;28;20041;-71
2022/02/26 07:21:30;;;;;;;4.43;2.10;;;;;;;21.56;34.98;103493.28;5031869;28;20104;-70
2022/02/26 07:23:56;;;;;;;5.70;2.50;;;;;;;21.43;35.14;103490.78;5030833;28;20049;-70
2022/02/26 07:26:22;;;;;;;4.30;2.08;;;;;;;21.39;35.18;103500.78;5031841;28;20056;-70
2022/02/26 07:28:49;;;;;;;4.22;2.25;;;;;;;21.32;35.16;103496.09;5033491;28;20041;-70
2022/02/26 07:31:14;;;;;;;4.15;1.60;;;;;;;21.28;35.44;103503.47;5029458;28;20045;-70
2022/02/26 07:33:40;;;;;;;3.90;1.70;;;;;;;21.30;35.17;103496.22;5032565;28;20494;-70
2022/02/26 07:36:07;;;;;;;3.13;1.75;;;;;;;21.18;35.10;103469.84;5036178;28;20529;-70
2022/02/26 07:38:34;;;;;;;5.30;2.10;;;;;;;21.56;34.74;103507.38;5032443;28;20063;-70
2022/02/26 07:40:59;;;;;;;5.25;2.60;;;;;;;21.65;34.54;103503.94;5038537;28;20065;-70
2022/02/26 07:43:25;;;;;;;5.20;2.30;;;;;;;21.81;34.42;103510.63;5030881;28;20037;-70
2022/02/26 07:45:50;;;;;;;5.05;1.60;;;;;;;21.77;34.39;103518.00;5036071;28;20075;-70
2022/02/26 07:48:16;;;;;;;4.03;1.80;;;;;;;21.73;34.55;103521.88;5030136;28;20041;-70
2022/02/26 07:50:42;;;;;;;6.10;2.00;;;;;;;21.66;34.85;103523.34;5036158;28;20663;-70
2022/02/26 07:53:07;;;;;;;5.10;1.80;;;;;;;21.58;34.73;103520.50;5032101;28;20583;-70
2022/02/26 07:55:34;;;;;;;4.13;1.77;;;;;;;21.40;34.93;103512.25;5039136;28;20033;-70
2022/02/26 07:58:02;;;;;;;4.95;1.52;;;;;;;21.45;34.93;103536.56;5034660;28;20437;-70
2022/02/26 08:00:28;;;;;;;7.57;1.73;;;;;;;21.39;35.06;103532.59;5034015;28;20451;-70
2022/02/26 08:02:53;;;;;;;5.80;1.90;;;;;;;21.34;35.33;103536.56;5036027;28;20039;-70
2022/02/26 08:05:19;;;;;;;2.95;1.45;;;;;;;21.28;35.26;103535.28;5034114;28;20040;-70
2022/02/26 08:07:45;;;;;;;3.95;1.45;;;;;;;21.28;35.21;103545.03;5036306;28;20200;-70
2022/02/26 08:10:11;;;;;;;5.40;1.70;;;;;;;21.25;35.33;103540.84;5036176;28;20039;-70
2022/02/26 08:12:37;;;;;;;5.03;2.55;;;;;;;21.23;35.37;103547.19;5034831;28;20411;-70
2022/02/26 08:15:03;;;;;;;4.18;1.55;;;;;;;21.20;35.34;103537.69;5033192;28;20029;-70
2022/02/26 08:17:28;;;;;;;4.78;1.73;;;;;;;21.20;35.38;103542.97;5035795;28;20210;-70
2022/02/26 08:19:55;;;;;;;5.72;1.63;;;;;;;21.16;35.20;103549.47;5036081;28;20045;-70
2022/02/26 08:22:20;;;;;;;4.60;2.15;;;;;;;21.17;35.28;103547.66;5037465;28;20095;-70
2022/02/26 08:24:46;;;;;;;5.40;2.00;;;;;;;21.32;35.09;103551.78;5042815;28;20114;-71
2022/02/26 08:27:12;;;;;;;6.70;2.30;;;;;;;21.35;35.45;103556.81;5036963;28;20033;-70
2022/02/26 08:29:39;;;;;;;3.35;1.45;;;;;;;21.31;35.27;103556.22;5039358;28;20059;-71
2022/02/26 08:32:04;;;;;;;7.05;2.20;;;;;;;21.29;35.46;103562.63;5032210;28;20535;-70
2022/02/26 08:34:30;;;;;;;4.03;1.95;;;;;;;21.34;35.23;103566.56;5040163;28;20044;-70
2022/02/26 08:36:56;;;;;;;6.20;2.65;;;;;;;21.42;35.01;103564.16;5040849;28;20041;-70
2022/02/26 08:39:24;;;;;;;5.03;1.75;;;;;;;21.45;35.22;103570.19;5039237;28;20390;-70
2022/02/26 08:41:51;;;;;;;4.95;2.20;;;;;;;21.49;35.07;103567.16;5039657;28;20549;-70
2022/02/26 08:44:16;;;;;;;4.97;2.15;;;;;;;21.63;34.91;103572.19;5035563;28;20054;-70
2022/02/26 08:46:42;;;;;;;4.57;1.90;;;;;;;21.75;34.51;103572.16;5038491;28;20048;-70
2022/02/26 08:49:08;;;;;;;3.58;1.80;;;;;;;21.74;34.56;103568.66;5036388;28;20110;-70
2022/02/26 08:51:33;;;;;;;6.03;2.08;;;;;;;21.70;34.60;103569.84;5042475;28;20407;-70
2022/02/26 08:53:59;;;;;;;5.03;2.10;;;;;;;21.65;34.92;103582.66;5040161;28;20033;-70
2022/02/26 08:56:25;;;;;;;2.67;1.75;;;;;;;21.58;34.78;103569.06;5043331;28;20041;-70
2022/02/26 08:58:52;;;;;;;4.47;1.75;;;;;;;21.57;34.77;103566.53;5038073;28;20029;-70
2022/02/26 09:01:19;;;;;;;4.75;2.00;;;;;;;21.57;35.14;103585.94;5042529;28;20040;-68
2022/02/26 09:03:44;;;;;;;4.10;2.03;;;;;;;21.53;34.88;103589.78;5045531;28;20061;-70
2022/02/26 09:06:10;;;;;;;4.72;1.92;;;;;;;21.46;35.07;103580.66;5037775;28;20575;-70
2022/02/26 09:08:38;;;;;;;8.95;2.40;;;;;;;21.43;35.04;103583.56;5039300;28;20048;-70
2022/02/26 09:11:06;;;;;;;4.28;1.48;;;;;;;21.39;35.25;103582.97;5036136;28;20070;-69
2022/02/26 09:13:36;;;;;;;4.53;1.70;;;;;;;21.37;35.30;103586.72;5044609;28;20052;-70
2022/02/26 09:16:02;;;;;;;4.50;2.08;;;;;;;21.33;35.33;103574.66;5037552;28;20715;-70
2022/02/26 09:18:28;;;;;;;7.45;2.05;;;;;;;21.33;35.47;103574.66;5041741;28;20039;-71
2022/02/26 09:20:54;;;;;;;3.78;1.85;;;;;;;21.31;35.27;103580.09;5036622;28;20037;-69
2022/02/26 09:23:19;;;;;;;3.65;1.90;;;;;;;21.39;35.35;103587.44;5042326;28;20044;-70
2022/02/26 09:25:45;;;;;;;4.25;1.98;;;;;;;21.53;34.85;103591.59;5046021;28;20041;-70
2022/02/26 09:28:10;;;;;;;6.78;2.08;;;;;;;21.71;34.70;103590.94;5039888;28;20041;-70
2022/02/26 09:30:36;;;;;;;4.85;2.28;;;;;;;21.92;34.30;103585.69;5039082;28;20064;-69
2022/02/26 09:33:03;;;;;;;3.55;1.73;;;;;;;22.07;34.05;103588.91;5038456;28;20052;-70
2022/02/26 09:35:29;;;;;;;6.97;1.98;;;;;;;22.03;34.06;103590.09;5043056;28;20583;-70
2022/02/26 09:37:55;;;;;;;3.63;1.48;;;;;;;21.94;34.34;103580.25;5037093;28;20036;-70
2022/02/26 09:40:21;;;;;;;7.60;2.17;;;;;;;21.89;34.07;103585.94;5043672;28;20047;-69
2022/02/26 09:42:47;;;;;;;5.50;1.88;;;;;;;21.83;34.31;103588.25;5036396;28;20403;-71
2022/02/26 09:45:12;;;;;;;7.72;2.13;;;;;;;21.79;34.85;103605.41;5042347;28;20045;-71
2022/02/26 09:47:38;;;;;;;7.53;2.55;;;;;;;21.75;34.89;103601.31;5038083;28;20669;-69
2022/02/26 09:50:05;;;;;;;6.22;2.20;;;;;;;21.68;35.05;103598.31;5035646;28;20037;-69
2022/02/26 09:52:36;;;;;;;5.07;1.98;;;;;;;21.67;35.49;103596.63;5040981;28;20522;-69
2022/02/26 09:55:01;;;;;;;4.32;1.70;;;;;;;21.59;35.51;103593.78;5036666;28;20536;-69
2022/02/26 09:57:27;;;;;;;4.10;1.85;;;;;;;21.54;35.95;103601.22;5042861;28;20033;-70
2022/02/26 09:59:53;;;;;;;4.97;2.17;;;;;;;21.51;36.02;103601.50;5037301;28;20036;-70
2022/02/26 10:02:28;;;;;;;5.47;2.05;;;;;;;21.49;35.80;103600.78;5039840;28;20868;-69
2022/02/26 10:04:57;;;;;;;5.03;1.77;;;;;;;21.62;35.67;103599.66;5040338;28;20049;-69
2022/02/26 10:07:24;;;;;;;6.75;2.22;;;;;;;21.75;35.55;103599.50;5037825;28;20517;-69
2022/02/26 10:09:52;;;;;;;5.88;2.00;;;;;;;21.94;35.17;103580.25;5039379;28;20036;-69
2022/02/26 10:12:22;;;;;;;4.95;2.17;;;;;;;22.19;35.02;103603.81;5036100;28;20036;-70
2022/02/26 10:14:50;;;;;;;6.22;2.38;;;;;;;22.19;34.71;103614.41;5040860;28;20036;-69
2022/02/26 10:17:31;;;;;;;7.53;1.75;;;;;;;22.13;35.10;103606.13;5035301;28;20041;-69
2022/02/26 10:20:05;;;;;;;3.28;1.55;;;;;;;22.08;35.01;103606.50;5041907;28;20029;-70
2022/02/26 10:22:32;;;;;;;7.25;2.13;;;;;;;21.71;35.99;103598.91;4998430;28;21211;-76
2022/02/26 10:25:12;;;;;;;6.05;2.38;;;;;;;21.80;36.66;103607.09;5044347;28;20439;-73
2022/02/26 10:27:45;;;;;;;5.65;1.98;;;;;;;21.71;36.71;103612.16;5045781;28;20036;-70
2022/02/26 10:30:23;;;;;;;4.35;1.77;;;;;;;21.68;36.67;103608.91;5048417;28;20120;-69
2022/02/26 10:33:14;;;;;;;5.90;2.03;;;;;;;21.68;36.59;103603.63;5049747;28;20036;-69
2022/02/26 10:35:45;;;;;;;5.55;2.20;;;;;;;21.65;36.71;103602.06;5046056;28;20037;-69
2022/02/26 10:38:21;;;;;;;7.18;1.90;;;;;;;21.55;36.91;103595.00;5017936;28;20037;-75
2022/02/26 10:41:06;;;;;;;4.03;1.77;;;;;;;21.66;36.95;103597.59;5036425;28;20040;-74
2022/02/26 10:44:01;;;;;;;7.80;2.20;;;;;;;21.71;36.55;103590.94;5045887;28;20611;-71
2022/02/26 10:46:28;;;;;;;10.35;3.13;;;;;;;21.99;36.46;103593.97;5019893;28;20041;-73
2022/02/26 10:49:07;;;;;;;6.07;1.95;;;;;;;22.24;35.66;103588.31;5047201;28;20237;-72
2022/02/26 10:51:35;;;;;;;9.98;2.10;;;;;;;22.38;35.38;103592.47;5023070;28;20401;-72
2022/02/26 10:54:03;;;;;;;7.32;2.10;;;;;;;22.43;35.33;103600.88;5047430;28;20039;-73
2022/02/26 10:56:32;;;;;;;8.73;2.25;;;;;;;22.41;35.50;103597.50;5006147;28;20035;-72
2022/02/26 10:58:58;;;;;;;5.45;1.83;;;;;;;22.64;34.84;103598.22;5049539;28;20631;-73
2022/02/26 11:01:23;;;;;;;8.70;2.78;;;;;;;22.65;35.12;103589.28;5020462;28;20051;-72
2022/02/26 11:03:54;;;;;;;6.07;1.60;;;;;;;22.70;34.51;103594.19;5048537;28;20044;-73
2022/02/26 11:06:21;;;;;;;5.63;2.53;;;;;;;22.75;34.38;103581.34;5019124;28;20037;-72
2022/02/26 11:08:47;;;;;;;6.65;2.10;;;;;;;22.76;34.67;103589.19;5049578;28;20036;-73
2022/02/26 11:11:12;;;;;;;6.43;1.83;;;;;;;22.81;34.35;103584.34;5014794;28;20347;-73
2022/02/26 11:13:39;;;;;;;4.68;1.70;;;;;;;22.77;34.29;103576.75;5037230;28;20039;-73
2022/02/26 11:16:06;;;;;;;7.00;2.00;;;;;;;22.84;34.46;103584.09;5046603;28;20576;-73
2022/02/26 11:18:41;;;;;;;6.15;2.10;;;;;;;22.78;34.63;103581.09;5019119;28;20048;-73
2022/02/26 11:21:10;;;;;;;8.52;2.38;;;;;;;22.78;34.76;103584.56;5050415;28;20024;-73
2022/02/26 11:23:38;;;;;;;4.82;1.73;;;;;;;22.75;34.17;103576.88;5014799;28;20378;-72